• Join FlightAware (Why Join?)
  • Login
  • US Flag 
07:17AM EDT


 

Airport Tracker/Info


-or-


 

Live Flight TrackerFlight Track Log ✈ VH-SBM ✈ 09-May-2013 ✈ YCKN / CTN - YBCS / CNS

Flight Track Log - Related Links

Times and Time Zones

All times are in EDT time to prevent confusion due to time zone crossing. See the VH-SBM flight status page for this flight to view local times or setup timezone preferences in your user account.

Time Position Orientation Groundspeed Altitude Reporting Facility
EDT Latitude Longitude Course Direction KTS MPH feet Rate Location/Type
04:28AM -15.4486 145.1873 176° South 1,300  Level Aus ATC (Calculated)
04:29AM -15.5362 145.2219 205° Southwest 1,300 2,100 Level Aus ATC (Calculated)
04:29AM -15.5362 145.2219 205° Southwest 1,300 2,400 Level Aus ATC (Calculated)
04:31AM -15.5915 145.2437 159° South  Level FlightAware Approximate
04:31AM -15.5869 145.1970 159° South 170 196 7,200  Level Aus ATC (RADAR)
04:31AM -15.5988 145.2049 147° Southeast 185 213 7,300 1,680 Climbing Aus ATC (RADAR)
04:32AM -15.6255 145.2174 156° South 179 206 8,600 1,680 Climbing Aus ATC (RADAR)
04:33AM -15.6637 145.2283 165° South 189 217 9,600 1,440 Climbing Aus ATC (RADAR)
04:33AM -15.6978 145.2408 161° South 191 220 10,700 1,440 Climbing Aus ATC (RADAR)
04:34AM -15.7366 145.2558 160° South 197 227 11,700 1,080 Climbing Aus ATC (RADAR)
04:34AM -15.7591 145.2645 160° South 204 235 12,000 900 Climbing Aus ATC (RADAR)
04:35AM -15.7886 145.2793 154° Southeast 198 228 12,600 660 Climbing Aus ATC (RADAR)
04:36AM -15.8443 145.3048 156° South 211 243 13,100 300 Climbing Aus ATC (RADAR)
04:36AM -15.8674 145.3126 162° South 209 241 13,100  Level Aus ATC (RADAR)
04:37AM -15.8986 145.3277 155° Southeast 211 243 13,100  Level Aus ATC (RADAR)
04:38AM -15.9390 145.3435 159° South 182 209 13,100  Level Aus ATC (RADAR)
04:38AM -15.9631 145.3535 158° South 161 185 13,100  Level Aus ATC (RADAR)
04:39AM -15.9975 145.3685 157° South 161 185 13,100  Level Aus ATC (RADAR)
04:40AM -16.0147 145.3750 160° South 159 183 13,100  Level Aus ATC (RADAR)
04:41AM -16.0599 145.3941 158° South 162 186 13,100  Level Aus ATC (RADAR)
04:41AM -16.0770 145.4020 156° South 163 188 13,100  Level Aus ATC (RADAR)
04:42AM -16.0945 145.4104 155° Southeast 164 189 13,100  Level Aus ATC (RADAR)
04:42AM -16.1228 145.4233 156° South 167 192 13,100  Level Aus ATC (RADAR)
04:43AM -16.1504 145.4359 156° South 184 212 13,100  Level Aus ATC (RADAR)
04:43AM -16.1810 145.4502 156° South 204 235 13,100  Level Aus ATC (RADAR)
04:44AM -16.2222 145.4691 156° South 215 247 13,100  Level Aus ATC (RADAR)
04:45AM -16.2454 145.4798 156° South 218 251 13,100  Level Aus ATC (RADAR)
04:45AM -16.2833 145.4961 158° South 220 253 13,100 -480 Level Aus ATC (RADAR)
04:46AM -16.3419 145.5224 157° South 234 269 12,400 -960 Descending Aus ATC (RADAR)
04:47AM -16.3685 145.5322 160° South 242 278 11,800 -1,740 Descending Aus ATC (RADAR)
04:47AM -16.4071 145.5457 162° South 250 288 10,700 -1,440 Descending Aus ATC (RADAR)
04:48AM -16.4482 145.5601 161° South 233 268 10,000 -1,320 Descending Aus ATC (RADAR)
04:48AM -16.4795 145.5713 161° South 208 239 9,100 -1,440 Descending Aus ATC (RADAR)
04:49AM -16.5180 145.5845 162° South 194 223 8,100 -1,500 Descending Aus ATC (RADAR)
04:50AM -16.5376 145.5937 156° South 187 215 7,400 -1,440 Descending Aus ATC (RADAR)
04:50AM -16.5654 145.6051 159° South 185 213 6,700 -960 Descending Aus ATC (RADAR)
04:51AM -16.6117 145.6267 156° South 168 193 5,800 -840 Descending Aus ATC (RADAR)
04:52AM -16.6289 145.6345 156° South 163 188 5,500 -840 Descending Aus ATC (RADAR)
04:52AM -16.6520 145.6467 153° Southeast 160 184 5,000 -900 Descending Aus ATC (RADAR)
04:53AM -16.6792 145.6576 159° South 158 182 4,400 -1,080 Descending Aus ATC (RADAR)
04:54AM -16.7019 145.6682 156° South 154 177 3,700 -1,140 Descending Aus ATC (RADAR)
04:54AM -16.7302 145.6814 156° South 150 173 2,900 -960 Descending Aus ATC (RADAR)
04:55AM -16.7481 145.6897 156° South 146 168 2,500 -780 Descending Aus ATC (RADAR)
04:55AM -16.7681 145.6988 157° South 139 160 2,100 -660 Descending Aus ATC (RADAR)
04:56AM -16.7979 145.7118 157° South 125 144 1,500 -600 Descending Aus ATC (RADAR)
04:57AM -16.8101 145.7189 151° Southeast 119 137 1,300 -720 Descending Aus ATC (RADAR)
04:57AM -16.8262 145.7257 158° South 109 125 800 -600 Descending Aus ATC (RADAR)
04:58AM -16.8444 145.7343 156° South 93 107 500 -420 Descending Aus ATC (RADAR)
04:59AM -16.8551 145.7392 156° South 75 86 300 -360 Descending Aus ATC (RADAR)